Time;durP1;ratioP1;P1;durP2;ratioP2;P2;SDS_P1;SDS_P2;PMS_P1;PMS_P2;Temp;Humidity;BMP_temperature;BMP_pressure;BME280_temperature;BME280_humidity;BME280_pressure;Samples;Min_cycle;Max_cycle;Signal;HPM_P1;HPM_P2
2023/11/09 00:01:00;;;;;;;1.88;1.05;;;11.40;99.90;;;;;;2081520;28;20116;-73
2023/11/09 00:02:01;;;;;;;1.20;1.00;;;11.40;99.90;;;;;;2081967;28;20508;-75
2023/11/09 00:03:01;;;;;;;2.65;1.35;;;11.40;99.90;;;;;;2081746;28;20025;-73
2023/11/09 00:04:03;;;;;;;2.83;0.95;;;11.40;99.90;;;;;;2082435;28;20067;-73
2023/11/09 00:05:04;;;;;;;3.00;1.00;;;11.40;99.90;;;;;;2080592;28;20025;-73
2023/11/09 00:06:05;;;;;;;2.00;1.00;;;11.40;99.90;;;;;;2082396;28;20030;-73
2023/11/09 00:07:07;;;;;;;2.05;0.85;;;11.40;99.90;;;;;;2081894;28;20017;-74
2023/11/09 00:08:08;;;;;;;1.70;1.10;;;11.50;99.90;;;;;;2081975;28;20543;-74
2023/11/09 00:09:09;;;;;;;1.98;0.93;;;11.40;99.90;;;;;;2080969;28;20515;-73
2023/11/09 00:10:12;;;;;;;2.10;1.25;;;11.50;99.90;;;;;;2083793;28;20076;-74
2023/11/09 00:11:13;;;;;;;1.15;1.05;;;11.50;99.90;;;;;;2083043;28;20128;-74
2023/11/09 00:12:13;;;;;;;2.58;1.17;;;11.50;99.90;;;;;;2082555;28;20048;-73
2023/11/09 00:13:14;;;;;;;1.38;0.77;;;11.50;99.90;;;;;;2082712;28;20124;-74
2023/11/09 00:14:17;;;;;;;1.73;1.35;;;11.50;99.90;;;;;;2082036;28;20500;-74
2023/11/09 00:15:20;;;;;;;1.95;0.98;;;11.50;99.90;;;;;;2081451;28;20609;-74
2023/11/09 00:16:21;;;;;;;2.00;0.90;;;11.50;99.90;;;;;;2080991;28;20034;-75
2023/11/09 00:17:22;;;;;;;2.28;0.95;;;11.50;99.90;;;;;;2080809;28;20043;-73
2023/11/09 00:18:22;;;;;;;2.35;1.00;;;11.40;99.90;;;;;;2084508;28;20390;-75
2023/11/09 00:19:23;;;;;;;1.73;1.13;;;11.50;99.90;;;;;;2082543;28;20028;-74
2023/11/09 00:20:25;;;;;;;2.88;1.35;;;11.50;99.90;;;;;;2082797;28;20510;-74
2023/11/09 00:21:25;;;;;;;2.20;1.20;;;11.50;99.90;;;;;;2083300;28;20028;-74
2023/11/09 00:22:26;;;;;;;1.85;1.02;;;11.50;99.90;;;;;;2080987;28;20036;-75
2023/11/09 00:23:26;;;;;;;2.45;0.98;;;11.50;99.90;;;;;;2081739;28;20025;-75
2023/11/09 00:24:27;;;;;;;1.88;1.17;;;11.50;99.90;;;;;;2082520;28;20019;-74
2023/11/09 00:25:27;;;;;;;1.20;1.02;;;11.40;99.90;;;;;;2070909;28;20068;-73
2023/11/09 00:26:28;;;;;;;2.83;1.20;;;11.40;99.90;;;;;;2073930;28;20017;-74
2023/11/09 00:27:28;;;;;;;3.70;1.00;;;11.40;99.90;;;;;;2073692;28;20391;-74
2023/11/09 00:28:29;;;;;;;1.75;1.00;;;11.50;99.90;;;;;;2074260;28;20056;-74
2023/11/09 00:29:30;;;;;;;1.20;1.10;;;11.50;99.90;;;;;;2071360;28;20018;-75
2023/11/09 00:30:32;;;;;;;2.20;1.25;;;11.50;99.90;;;;;;2082138;28;20105;-74
2023/11/09 00:31:33;;;;;;;1.83;1.25;;;11.50;99.90;;;;;;2082549;28;20072;-74
2023/11/09 00:32:34;;;;;;;0.93;0.82;;;11.40;99.90;;;;;;2081866;28;20025;-75
2023/11/09 00:33:34;;;;;;;4.07;1.27;;;11.50;99.90;;;;;;2083111;28;20146;-73
2023/11/09 00:34:35;;;;;;;1.40;1.00;;;11.50;99.90;;;;;;2083579;28;20429;-75
2023/11/09 00:35:36;;;;;;;3.50;1.13;;;11.50;99.90;;;;;;2082198;28;20035;-73
2023/11/09 00:36:36;;;;;;;1.85;1.25;;;11.50;99.90;;;;;;2081324;28;20025;-73
2023/11/09 00:37:37;;;;;;;1.90;1.35;;;11.50;99.90;;;;;;2081230;28;20104;-74
2023/11/09 00:38:38;;;;;;;1.55;0.93;;;11.50;99.90;;;;;;2081277;28;20048;-74
2023/11/09 00:39:39;;;;;;;2.65;1.60;;;11.50;99.90;;;;;;2082343;28;20029;-76
2023/11/09 00:40:40;;;;;;;1.15;0.90;;;11.40;99.90;;;;;;2080907;28;20673;-74
2023/11/09 00:41:41;;;;;;;1.27;1.10;;;11.50;99.90;;;;;;2082486;28;20367;-74
2023/11/09 00:42:41;;;;;;;1.90;1.20;;;11.50;99.90;;;;;;2081742;28;20028;-74
2023/11/09 00:43:42;;;;;;;3.35;1.30;;;11.50;99.90;;;;;;2081852;28;20026;-72
2023/11/09 00:44:42;;;;;;;1.50;1.20;;;11.50;99.90;;;;;;2081798;28;20038;-74
2023/11/09 00:45:43;;;;;;;1.45;0.90;;;11.50;99.90;;;;;;2081084;28;20059;-73
2023/11/09 00:46:43;;;;;;;3.22;1.38;;;11.50;99.90;;;;;;2082634;28;20099;-74
2023/11/09 00:47:45;;;;;;;3.97;1.67;;;11.50;99.90;;;;;;2080164;28;20052;-73
2023/11/09 00:48:46;;;;;;;2.88;1.05;;;11.50;99.90;;;;;;2081908;28;20018;-73
2023/11/09 00:49:47;;;;;;;2.28;1.08;;;11.40;99.90;;;;;;2082148;28;20029;-74
2023/11/09 00:50:47;;;;;;;4.00;1.33;;;11.50;99.90;;;;;;2082101;28;20036;-75
2023/11/09 00:51:48;;;;;;;1.38;1.17;;;11.50;99.90;;;;;;2080680;28;20465;-74
2023/11/09 00:52:48;;;;;;;2.33;1.10;;;11.40;99.90;;;;;;2081190;28;20025;-74
2023/11/09 00:53:49;;;;;;;2.20;1.40;;;11.40;99.90;;;;;;2080304;28;20026;-73
2023/11/09 00:54:51;;;;;;;3.15;1.30;;;11.50;99.90;;;;;;2083142;28;20025;-74
2023/11/09 00:55:51;;;;;;;4.93;1.33;;;11.40;99.90;;;;;;2083724;28;20732;-75
2023/11/09 00:56:53;;;;;;;1.58;0.90;;;11.40;99.90;;;;;;2084429;28;20024;-74
2023/11/09 00:57:53;;;;;;;2.33;1.00;;;11.40;99.90;;;;;;2082954;28;20121;-74
2023/11/09 00:58:54;;;;;;;2.03;1.05;;;11.40;99.90;;;;;;2079988;28;20033;-74
2023/11/09 00:59:55;;;;;;;2.55;1.35;;;11.50;99.90;;;;;;2081087;28;20036;-72
2023/11/09 01:00:56;;;;;;;2.80;1.15;;;11.50;99.90;;;;;;2081889;28;20686;-74
2023/11/09 01:01:57;;;;;;;2.88;1.25;;;11.50;99.90;;;;;;2080692;28;20038;-73
2023/11/09 01:02:57;;;;;;;3.05;1.10;;;11.40;99.90;;;;;;2074154;28;20621;-74
2023/11/09 01:03:58;;;;;;;2.55;1.42;;;11.40;99.90;;;;;;2074009;28;20037;-73
2023/11/09 01:04:58;;;;;;;1.92;1.52;;;11.40;99.90;;;;;;2081543;28;20690;-72
2023/11/09 01:06:04;;;;;;;2.72;1.30;;;11.40;99.90;;;;;;2081812;28;20091;-73
2023/11/09 01:07:04;;;;;;;1.98;1.27;;;11.40;99.90;;;;;;2080051;28;20082;-73
2023/11/09 01:08:05;;;;;;;2.53;1.05;;;11.50;99.90;;;;;;2072319;28;20026;-73
2023/11/09 01:09:05;;;;;;;1.67;1.13;;;11.40;99.90;;;;;;2073489;28;20156;-73
2023/11/09 01:10:06;;;;;;;3.15;1.10;;;11.40;99.90;;;;;;2080395;28;20680;-73
2023/11/09 01:11:07;;;;;;;3.60;1.20;;;11.40;99.90;;;;;;2083154;28;20018;-75
2023/11/09 01:12:08;;;;;;;3.58;1.20;;;11.50;99.90;;;;;;2081607;28;20029;-73
2023/11/09 01:13:09;;;;;;;3.10;1.33;;;11.40;99.90;;;;;;2081002;28;20531;-73
2023/11/09 01:14:10;;;;;;;3.85;1.15;;;11.40;99.90;;;;;;2076797;28;20405;-72
2023/11/09 01:15:10;;;;;;;2.80;1.20;;;11.40;99.90;;;;;;2073767;28;20211;-73
2023/11/09 01:16:11;;;;;;;4.10;1.55;;;11.40;99.90;;;;;;2082639;28;20837;-73
2023/11/09 01:17:11;;;;;;;1.63;1.00;;;11.50;99.90;;;;;;2082860;28;20039;-73
2023/11/09 01:18:12;;;;;;;1.80;1.05;;;11.40;99.90;;;;;;2080753;28;20044;-74
2023/11/09 01:19:13;;;;;;;3.78;1.20;;;11.50;99.90;;;;;;2082792;28;20056;-74
2023/11/09 01:20:13;;;;;;;1.10;1.00;;;11.40;99.90;;;;;;2083058;28;20037;-73
2023/11/09 01:21:14;;;;;;;1.83;1.00;;;11.50;99.90;;;;;;2082879;28;20037;-74
2023/11/09 01:22:15;;;;;;;2.70;1.35;;;11.50;99.90;;;;;;2082571;28;20057;-74
2023/11/09 01:23:19;;;;;;;1.23;0.80;;;11.50;99.90;;;;;;2081858;28;20528;-73
2023/11/09 01:24:19;;;;;;;1.15;0.70;;;11.50;99.90;;;;;;2080837;28;20075;-73
2023/11/09 01:25:20;;;;;;;1.55;1.05;;;11.50;99.90;;;;;;2082460;28;20029;-74
2023/11/09 01:26:20;;;;;;;1.88;0.98;;;11.50;99.90;;;;;;2082269;28;20515;-76
2023/11/09 01:27:21;;;;;;;1.40;1.30;;;11.50;99.90;;;;;;2085178;28;20021;-73
2023/11/09 01:28:21;;;;;;;0.80;0.80;;;11.40;99.90;;;;;;2082395;28;20639;-74
2023/11/09 01:29:22;;;;;;;1.48;1.00;;;11.40;99.90;;;;;;2082262;28;20047;-74
2023/11/09 01:30:22;;;;;;;1.33;1.20;;;11.50;99.90;;;;;;2082054;28;20029;-74
2023/11/09 01:31:23;;;;;;;2.10;1.10;;;11.50;99.90;;;;;;2081527;28;20532;-73
2023/11/09 01:32:25;;;;;;;1.00;0.80;;;11.50;99.90;;;;;;2081128;28;20040;-73
2023/11/09 01:33:26;;;;;;;1.70;1.02;;;11.50;99.90;;;;;;2083709;28;20028;-74
2023/11/09 01:34:27;;;;;;;1.65;1.15;;;11.50;99.90;;;;;;2080821;28;20028;-74
2023/11/09 01:35:29;;;;;;;1.05;0.93;;;11.50;99.90;;;;;;2081801;28;20061;-73
2023/11/09 01:36:30;;;;;;;4.00;1.65;;;11.50;99.90;;;;;;2083955;28;20510;-73
2023/11/09 01:37:31;;;;;;;1.20;0.73;;;11.50;99.90;;;;;;2082401;28;20425;-74
2023/11/09 01:38:33;;;;;;;1.73;0.70;;;11.50;99.90;;;;;;2084965;28;20044;-74
2023/11/09 01:39:34;;;;;;;1.80;1.13;;;11.50;99.90;;;;;;2084012;28;20041;-73
2023/11/09 01:40:36;;;;;;;1.17;0.80;;;11.50;99.90;;;;;;2083994;28;20032;-74
2023/11/09 01:41:38;;;;;;;1.55;0.88;;;11.50;99.90;;;;;;2083011;28;20091;-73
2023/11/09 01:42:41;;;;;;;5.28;1.20;;;11.50;99.90;;;;;;2082985;28;20024;-73
2023/11/09 01:43:53;;;;;;;2.42;0.90;;;11.50;99.90;;;;;;2083455;28;20044;-73
2023/11/09 01:44:54;;;;;;;0.80;0.70;;;11.50;99.90;;;;;;2074456;28;20033;-73
2023/11/09 01:45:54;;;;;;;1.23;0.80;;;11.50;99.90;;;;;;2076041;28;20071;-72
2023/11/09 01:46:56;;;;;;;1.80;1.00;;;11.40;99.90;;;;;;2083749;28;20052;-74
2023/11/09 01:47:58;;;;;;;1.95;1.00;;;11.40;99.90;;;;;;2073342;28;20587;-74
2023/11/09 01:48:59;;;;;;;2.83;0.90;;;11.50;99.90;;;;;;2076506;28;20723;-75
2023/11/09 01:50:01;;;;;;;2.80;0.95;;;11.50;99.90;;;;;;2083541;28;20026;-74
2023/11/09 01:51:03;;;;;;;2.65;0.90;;;11.50;99.90;;;;;;2083195;28;20088;-72
2023/11/09 01:52:04;;;;;;;4.05;1.20;;;11.50;99.90;;;;;;2082637;28;20057;-75
2023/11/09 01:53:07;;;;;;;1.00;0.98;;;11.50;99.90;;;;;;2082629;28;20044;-73
2023/11/09 01:54:10;;;;;;;1.35;0.80;;;11.50;99.90;;;;;;2083408;28;20039;-74
2023/11/09 01:55:12;;;;;;;0.85;0.60;;;11.50;99.90;;;;;;2081776;28;20025;-74
2023/11/09 01:56:14;;;;;;;2.45;0.80;;;11.50;99.90;;;;;;2082971;28;20092;-73
2023/11/09 01:57:17;;;;;;;0.98;0.85;;;11.50;99.90;;;;;;2076826;28;20509;-73
2023/11/09 01:58:19;;;;;;;0.73;0.70;;;11.50;99.90;;;;;;2072801;28;20028;-73
2023/11/09 01:59:21;;;;;;;1.45;1.00;;;11.50;99.90;;;;;;2082374;28;20079;-75
2023/11/09 02:00:22;;;;;;;3.72;1.10;;;11.50;99.90;;;;;;2085644;28;20068;-74
2023/11/09 02:01:25;;;;;;;1.30;1.17;;;11.50;99.90;;;;;;2083674;28;20544;-74
2023/11/09 02:02:25;;;;;;;2.85;1.05;;;11.50;99.90;;;;;;2083150;28;20028;-74
2023/11/09 02:03:26;;;;;;;2.78;0.90;;;11.50;99.90;;;;;;2084675;28;20109;-73
2023/11/09 02:04:28;;;;;;;2.35;0.90;;;11.50;99.90;;;;;;2084115;28;20029;-74
2023/11/09 02:05:29;;;;;;;1.38;0.85;;;11.50;99.90;;;;;;2083937;28;20370;-75
2023/11/09 02:06:30;;;;;;;0.88;0.80;;;11.50;99.90;;;;;;2083993;28;20029;-74
2023/11/09 02:07:31;;;;;;;1.10;1.00;;;11.50;99.90;;;;;;2083441;28;20488;-72
2023/11/09 02:08:32;;;;;;;2.55;0.90;;;11.50;99.90;;;;;;2073764;28;20124;-74
2023/11/09 02:09:33;;;;;;;1.25;0.85;;;11.50;99.90;;;;;;2073961;28;20103;-74
2023/11/09 02:10:34;;;;;;;2.28;0.93;;;11.50;99.90;;;;;;2083186;28;20743;-73
2023/11/09 02:11:35;;;;;;;1.20;1.08;;;11.50;99.90;;;;;;2082945;28;20090;-72
2023/11/09 02:12:36;;;;;;;1.98;0.85;;;11.50;99.90;;;;;;2082885;28;20025;-73
2023/11/09 02:13:36;;;;;;;1.48;0.60;;;11.50;99.90;;;;;;2082793;28;20557;-72
2023/11/09 02:14:37;;;;;;;2.78;1.30;;;11.50;99.90;;;;;;2082799;28;20036;-73
2023/11/09 02:15:37;;;;;;;1.27;0.77;;;11.50;99.90;;;;;;2084985;28;20082;-74
2023/11/09 02:16:38;;;;;;;2.72;1.10;;;11.50;99.90;;;;;;2082484;28;20021;-74
2023/11/09 02:17:40;;;;;;;3.55;1.10;;;11.60;99.90;;;;;;2082896;28;20731;-74
2023/11/09 02:18:41;;;;;;;1.95;1.00;;;11.50;99.90;;;;;;2082606;28;20020;-73
2023/11/09 02:19:41;;;;;;;1.10;0.90;;;11.50;99.90;;;;;;2082481;28;20494;-73
2023/11/09 02:20:42;;;;;;;1.05;0.90;;;11.50;99.90;;;;;;2082941;28;20482;-73
2023/11/09 02:21:47;;;;;;;2.28;1.30;;;11.50;99.90;;;;;;2082399;28;20052;-73
2023/11/09 02:22:51;;;;;;;1.50;1.00;;;11.60;99.90;;;;;;2082875;28;20540;-75
2023/11/09 02:23:54;;;;;;;0.90;0.90;;;11.60;99.90;;;;;;2082639;28;20033;-74
2023/11/09 02:24:56;;;;;;;1.35;0.73;;;11.60;99.90;;;;;;2083152;28;20798;-74
2023/11/09 02:25:57;;;;;;;2.15;1.23;;;11.60;99.90;;;;;;2081213;28;20037;-74
2023/11/09 02:26:57;;;;;;;2.53;1.20;;;11.60;99.90;;;;;;2082180;28;20028;-73
2023/11/09 02:27:58;;;;;;;1.83;1.20;;;11.60;99.90;;;;;;2081901;28;21644;-74
2023/11/09 02:28:58;;;;;;;1.73;0.95;;;11.60;99.90;;;;;;2082440;28;20509;-74
2023/11/09 02:29:59;;;;;;;1.73;0.95;;;11.60;99.90;;;;;;2083441;28;20022;-73
2023/11/09 02:30:59;;;;;;;1.40;0.80;;;11.60;99.90;;;;;;2081807;28;20035;-75
2023/11/09 02:32:00;;;;;;;1.50;0.95;;;11.60;99.90;;;;;;2083324;28;20061;-75
2023/11/09 02:33:03;;;;;;;1.17;1.00;;;11.60;99.90;;;;;;2081786;28;20025;-74
2023/11/09 02:34:09;;;;;;;1.58;0.85;;;11.60;99.90;;;;;;2084593;28;20061;-75
2023/11/09 02:35:09;;;;;;;1.55;1.10;;;11.60;99.90;;;;;;2082441;28;20036;-75
2023/11/09 02:36:11;;;;;;;1.00;0.90;;;11.50;99.90;;;;;;2083547;28;20017;-73
2023/11/09 02:37:12;;;;;;;1.70;1.00;;;11.60;99.90;;;;;;2082539;28;20116;-74
2023/11/09 02:38:13;;;;;;;1.70;1.00;;;11.50;99.90;;;;;;2082096;28;20533;-75
2023/11/09 02:39:14;;;;;;;2.28;0.93;;;11.60;99.90;;;;;;2082642;28;20448;-73
2023/11/09 02:40:15;;;;;;;2.20;1.00;;;11.60;99.90;;;;;;2085246;28;20021;-74
2023/11/09 02:41:15;;;;;;;1.88;0.93;;;11.60;99.90;;;;;;2082889;28;20057;-73
2023/11/09 02:42:16;;;;;;;1.10;1.00;;;11.60;99.90;;;;;;2081316;28;20628;-73
2023/11/09 02:43:16;;;;;;;1.65;1.00;;;11.60;99.90;;;;;;2083547;28;20029;-74
2023/11/09 02:44:17;;;;;;;3.38;1.30;;;11.60;99.90;;;;;;2083828;28;20029;-74
2023/11/09 02:45:18;;;;;;;3.83;1.30;;;11.60;99.90;;;;;;2081532;28;20021;-73
2023/11/09 02:46:18;;;;;;;1.35;1.00;;;11.60;99.90;;;;;;2082483;28;20064;-75
2023/11/09 02:47:19;;;;;;;3.08;1.08;;;11.60;99.90;;;;;;2084631;28;20462;-73
2023/11/09 02:48:20;;;;;;;1.90;0.73;;;11.60;99.90;;;;;;2083578;28;20070;-72
2023/11/09 02:49:20;;;;;;;1.55;0.88;;;11.60;99.90;;;;;;2083730;28;20159;-74
2023/11/09 02:50:21;;;;;;;2.20;0.90;;;11.60;99.90;;;;;;2083011;28;20549;-69
2023/11/09 02:51:22;;;;;;;1.27;0.70;;;11.60;99.90;;;;;;2081795;28;20044;-68
2023/11/09 02:52:22;;;;;;;2.97;1.00;;;11.60;99.90;;;;;;2084971;28;20032;-69
2023/11/09 02:53:23;;;;;;;2.20;0.80;;;11.60;99.90;;;;;;2083603;28;20140;-68
2023/11/09 02:54:25;;;;;;;1.58;1.00;;;11.50;99.90;;;;;;2081330;28;20040;-70
2023/11/09 02:55:26;;;;;;;1.85;0.95;;;11.50;99.90;;;;;;2082339;28;20024;-69
2023/11/09 02:56:27;;;;;;;1.38;1.13;;;11.50;99.90;;;;;;2082983;28;20029;-69
2023/11/09 02:57:29;;;;;;;1.10;0.70;;;11.50;99.90;;;;;;2075794;28;20558;-70
2023/11/09 02:58:30;;;;;;;1.30;1.13;;;11.50;99.90;;;;;;2074424;28;20026;-69
2023/11/09 02:59:31;;;;;;;0.80;0.75;;;11.50;99.90;;;;;;2083278;28;20124;-73
2023/11/09 03:00:31;;;;;;;2.30;0.93;;;11.50;99.90;;;;;;2082334;28;20033;-74
2023/11/09 03:01:32;;;;;;;1.40;0.73;;;11.50;99.90;;;;;;2083013;28;20080;-73
2023/11/09 03:02:34;;;;;;;2.22;0.88;;;11.50;99.90;;;;;;2082171;28;20029;-75
2023/11/09 03:03:34;;;;;;;2.15;1.00;;;11.50;99.90;;;;;;2082489;28;20018;-73
2023/11/09 03:04:35;;;;;;;3.03;1.08;;;11.50;99.90;;;;;;2082035;28;20025;-73
2023/11/09 03:05:35;;;;;;;1.42;0.80;;;11.50;99.90;;;;;;2081480;28;20033;-74
2023/11/09 03:06:36;;;;;;;1.98;1.05;;;11.50;99.90;;;;;;2083686;28;20112;-74
2023/11/09 03:07:37;;;;;;;2.40;1.10;;;11.50;99.90;;;;;;2083471;28;20021;-74
2023/11/09 03:08:37;;;;;;;0.95;0.82;;;11.50;99.90;;;;;;2082141;28;20021;-74
2023/11/09 03:09:38;;;;;;;1.75;0.90;;;11.50;99.90;;;;;;2081410;28;20437;-74
2023/11/09 03:10:39;;;;;;;0.70;0.70;;;11.50;99.90;;;;;;2082964;28;20025;-74
2023/11/09 03:11:39;;;;;;;4.43;0.85;;;11.50;99.90;;;;;;2082029;28;20033;-75
2023/11/09 03:12:40;;;;;;;2.75;0.88;;;11.50;99.90;;;;;;2083850;28;20025;-75
2023/11/09 03:13:42;;;;;;;0.95;0.93;;;11.50;99.90;;;;;;2081468;28;20024;-74
2023/11/09 03:14:43;;;;;;;1.52;0.80;;;11.50;99.90;;;;;;2081443;28;20053;-74
2023/11/09 03:15:44;;;;;;;1.35;0.88;;;11.50;99.90;;;;;;2083453;28;20025;-74
2023/11/09 03:16:45;;;;;;;1.92;1.10;;;11.50;99.90;;;;;;2082264;28;20027;-74
2023/11/09 03:17:45;;;;;;;2.92;0.93;;;11.50;99.90;;;;;;2082003;28;20025;-74
2023/11/09 03:18:46;;;;;;;0.65;0.65;;;11.50;99.90;;;;;;2081650;28;20049;-73
2023/11/09 03:19:49;;;;;;;1.33;1.00;;;11.50;99.90;;;;;;2083048;28;20489;-75
2023/11/09 03:20:51;;;;;;;0.70;0.70;;;11.50;99.90;;;;;;2082843;28;20029;-73
2023/11/09 03:21:52;;;;;;;1.77;1.02;;;11.50;99.90;;;;;;2082667;28;20026;-74
2023/11/09 03:22:52;;;;;;;2.60;0.95;;;11.50;99.90;;;;;;2081529;28;20608;-73
2023/11/09 03:23:53;;;;;;;0.88;0.88;;;11.50;99.90;;;;;;2082551;28;20034;-74
2023/11/09 03:24:53;;;;;;;1.60;0.88;;;11.50;99.90;;;;;;2083184;28;20711;-75
2023/11/09 03:25:54;;;;;;;1.80;0.90;;;11.50;99.90;;;;;;2082750;28;20045;-74
2023/11/09 03:26:57;;;;;;;0.80;0.80;;;11.50;99.90;;;;;;2081661;28;20037;-75
2023/11/09 03:27:58;;;;;;;0.77;0.77;;;11.50;99.90;;;;;;2082190;28;20386;-74
2023/11/09 03:28:58;;;;;;;1.10;0.93;;;11.50;99.90;;;;;;2080742;28;20034;-74
2023/11/09 03:29:59;;;;;;;2.53;0.90;;;11.50;99.90;;;;;;2080733;28;20022;-75
2023/11/09 03:31:03;;;;;;;0.95;0.75;;;11.50;99.90;;;;;;2084068;28;20132;-73
2023/11/09 03:32:06;;;;;;;1.95;1.00;;;11.50;99.90;;;;;;2072627;28;20509;-75
2023/11/09 03:33:07;;;;;;;1.65;1.05;;;11.50;99.90;;;;;;2076288;28;20083;-74
2023/11/09 03:34:08;;;;;;;1.95;0.80;;;11.50;99.90;;;;;;2083438;28;20025;-75
2023/11/09 03:35:09;;;;;;;0.75;0.75;;;11.50;99.90;;;;;;2085847;28;20102;-75
2023/11/09 03:36:15;;;;;;;1.58;0.80;;;11.60;99.90;;;;;;2082731;28;20024;-74
2023/11/09 03:37:16;;;;;;;3.05;0.80;;;11.60;99.90;;;;;;2080755;28;20025;-73
2023/11/09 03:38:16;;;;;;;1.13;0.93;;;11.60;99.90;;;;;;2083607;28;20687;-74
2023/11/09 03:39:17;;;;;;;2.10;0.98;;;11.60;99.90;;;;;;2082307;28;20041;-73
2023/11/09 03:40:17;;;;;;;2.30;0.80;;;11.60;99.90;;;;;;2083416;28;20044;-75
2023/11/09 03:41:19;;;;;;;1.35;0.82;;;11.60;99.90;;;;;;2074255;28;20034;-75
2023/11/09 03:42:20;;;;;;;3.35;1.00;;;11.60;99.90;;;;;;2076236;28;20108;-76
2023/11/09 03:43:21;;;;;;;1.80;1.00;;;11.60;99.90;;;;;;2083036;28;20033;-74
2023/11/09 03:44:21;;;;;;;2.47;1.05;;;11.60;99.90;;;;;;2083225;28;20116;-74
2023/11/09 03:45:22;;;;;;;1.75;0.90;;;11.60;99.90;;;;;;2081707;28;20029;-75
2023/11/09 03:46:23;;;;;;;1.88;0.95;;;11.60;99.90;;;;;;2082405;28;20477;-75
2023/11/09 03:47:24;;;;;;;2.28;0.70;;;11.60;99.90;;;;;;2082436;28;20375;-75
2023/11/09 03:48:24;;;;;;;1.40;1.00;;;11.60;99.90;;;;;;2084072;28;20029;-75
2023/11/09 03:49:25;;;;;;;1.98;0.98;;;11.60;99.90;;;;;;2080595;28;20025;-74
2023/11/09 03:50:25;;;;;;;2.75;0.90;;;11.60;99.90;;;;;;2080663;28;20666;-72
2023/11/09 03:51:27;;;;;;;1.48;1.00;;;11.60;99.90;;;;;;2082825;28;20018;-72
2023/11/09 03:52:27;;;;;;;2.85;0.90;;;11.60;99.90;;;;;;2082037;28;20056;-74
2023/11/09 03:53:28;;;;;;;2.95;1.00;;;11.60;99.90;;;;;;2083072;28;20025;-74
2023/11/09 03:54:28;;;;;;;0.70;0.70;;;11.60;99.90;;;;;;2082359;28;20034;-75
2023/11/09 03:55:30;;;;;;;1.13;0.90;;;11.70;99.90;;;;;;2082770;28;20029;-74
2023/11/09 03:56:31;;;;;;;1.42;1.10;;;11.70;99.90;;;;;;2084835;28;20505;-74
2023/11/09 03:57:32;;;;;;;3.15;0.80;;;11.70;99.90;;;;;;2083175;28;20429;-74
2023/11/09 03:58:34;;;;;;;2.15;1.00;;;11.70;99.90;;;;;;2084052;28;20060;-76
2023/11/09 03:59:34;;;;;;;1.63;1.00;;;11.70;99.90;;;;;;2081393;28;20440;-74
2023/11/09 04:00:35;;;;;;;1.15;0.80;;;11.70;99.90;;;;;;2080588;28;20021;-72
2023/11/09 04:01:36;;;;;;;1.73;0.90;;;11.60;99.90;;;;;;2083804;28;20034;-74
2023/11/09 04:02:41;;;;;;;1.33;0.85;;;11.70;99.90;;;;;;2081596;28;20025;-75
2023/11/09 04:03:41;;;;;;;1.15;0.80;;;11.70;99.90;;;;;;2081605;28;20036;-72
2023/11/09 04:04:42;;;;;;;2.47;0.85;;;11.70;99.90;;;;;;2082981;28;20039;-74
2023/11/09 04:05:42;;;;;;;0.82;0.70;;;11.70;99.90;;;;;;2081768;28;20033;-74
2023/11/09 04:06:43;;;;;;;1.10;1.00;;;11.70;99.90;;;;;;2082501;28;20535;-74
2023/11/09 04:07:44;;;;;;;0.60;0.60;;;11.70;99.90;;;;;;2082689;28;20025;-74
2023/11/09 04:08:46;;;;;;;1.55;0.80;;;11.70;99.90;;;;;;2080466;28;20029;-75
2023/11/09 04:09:47;;;;;;;4.30;0.95;;;11.70;99.90;;;;;;2082382;28;20024;-74
2023/11/09 04:10:48;;;;;;;1.25;0.85;;;11.70;99.90;;;;;;2082674;28;20025;-74
2023/11/09 04:11:48;;;;;;;1.85;0.70;;;11.60;99.90;;;;;;2080987;28;20025;-73
2023/11/09 04:12:49;;;;;;;0.70;0.60;;;11.70;99.90;;;;;;2084906;28;20028;-74
2023/11/09 04:13:49;;;;;;;1.95;0.80;;;11.70;99.90;;;;;;2081520;28;20020;-75
2023/11/09 04:14:50;;;;;;;1.40;0.73;;;11.70;99.90;;;;;;2081367;28;20090;-74
2023/11/09 04:15:50;;;;;;;0.60;0.60;;;11.70;99.90;;;;;;2081507;28;20025;-74
2023/11/09 04:16:51;;;;;;;2.20;0.95;;;11.70;99.90;;;;;;2080744;28;20043;-75
2023/11/09 04:17:52;;;;;;;0.93;0.80;;;11.70;99.90;;;;;;2083031;28;20017;-73
2023/11/09 04:18:52;;;;;;;0.63;0.63;;;11.70;99.90;;;;;;2083144;28;20025;-73
2023/11/09 04:19:53;;;;;;;1.67;0.80;;;11.70;99.90;;;;;;2082097;28;20067;-74
2023/11/09 04:20:53;;;;;;;3.08;0.88;;;11.70;99.90;;;;;;2081533;28;20029;-74
2023/11/09 04:21:54;;;;;;;0.50;0.50;;;11.70;99.90;;;;;;2080517;28;20029;-72
2023/11/09 04:22:54;;;;;;;3.28;0.90;;;11.70;99.90;;;;;;2080984;28;20506;-74
2023/11/09 04:23:55;;;;;;;0.65;0.65;;;11.70;99.90;;;;;;2083507;28;20074;-75
2023/11/09 04:24:56;;;;;;;0.70;0.70;;;11.70;99.90;;;;;;2077994;28;20029;-74
2023/11/09 04:25:57;;;;;;;1.08;0.60;;;11.70;99.90;;;;;;2077901;28;20033;-74
2023/11/09 04:26:58;;;;;;;1.60;0.73;;;11.70;99.90;;;;;;2080044;28;20676;-74
2023/11/09 04:27:58;;;;;;;0.40;0.40;;;11.70;99.90;;;;;;2081535;28;20466;-75
2023/11/09 04:28:59;;;;;;;0.70;0.60;;;11.70;99.90;;;;;;2081515;28;20029;-75
2023/11/09 04:30:00;;;;;;;1.30;1.00;;;11.70;99.90;;;;;;2083199;28;20520;-74
2023/11/09 04:31:04;;;;;;;2.10;0.50;;;11.70;99.90;;;;;;2081621;28;20059;-75
2023/11/09 04:32:08;;;;;;;1.02;0.70;;;11.70;99.90;;;;;;2082596;28;20435;-74
2023/11/09 04:33:09;;;;;;;1.88;0.50;;;11.70;99.90;;;;;;2083299;28;20116;-72
2023/11/09 04:34:10;;;;;;;1.10;0.50;;;11.70;99.90;;;;;;2083673;28;20513;-74
2023/11/09 04:35:10;;;;;;;0.70;0.70;;;11.70;99.90;;;;;;2082034;28;20041;-75
2023/11/09 04:36:11;;;;;;;0.65;0.60;;;11.70;99.90;;;;;;2082474;28;20573;-74
2023/11/09 04:37:13;;;;;;;2.78;0.70;;;11.70;99.90;;;;;;2081436;28;20033;-75
2023/11/09 04:38:15;;;;;;;0.75;0.70;;;11.70;99.90;;;;;;2081288;28;20029;-75
2023/11/09 04:39:27;;;;;;;2.00;0.60;;;11.70;99.90;;;;;;2081611;28;20108;-72
2023/11/09 04:40:29;;;;;;;1.05;0.60;;;11.70;99.90;;;;;;2082631;28;20029;-74
2023/11/09 04:41:29;;;;;;;1.65;0.73;;;11.70;99.90;;;;;;2080727;28;20057;-75
2023/11/09 04:42:30;;;;;;;1.27;0.73;;;11.70;99.90;;;;;;2081106;28;20029;-75
2023/11/09 04:43:31;;;;;;;1.10;0.70;;;11.60;99.90;;;;;;2081941;28;20024;-73
2023/11/09 04:44:32;;;;;;;0.63;0.63;;;11.70;99.90;;;;;;2080174;28;20025;-75
2023/11/09 04:45:33;;;;;;;1.13;0.60;;;11.70;99.90;;;;;;2082008;28;20045;-75
2023/11/09 04:46:40;;;;;;;2.28;0.63;;;11.70;99.90;;;;;;2082763;28;20056;-74
2023/11/09 04:47:41;;;;;;;2.03;0.85;;;11.70;99.90;;;;;;2072649;28;20024;-73
2023/11/09 04:48:46;;;;;;;3.92;1.02;;;11.70;99.90;;;;;;2075989;28;20025;-73
2023/11/09 04:49:57;;;;;;;1.27;0.60;;;11.70;99.90;;;;;;2082752;28;20017;-68
2023/11/09 04:51:02;;;;;;;3.45;0.68;;;11.70;99.90;;;;;;2081583;28;20013;-68
2023/11/09 04:52:05;;;;;;;2.25;0.80;;;11.70;99.90;;;;;;2081283;28;20026;-68
2023/11/09 04:53:19;;;;;;;0.70;0.70;;;11.70;99.90;;;;;;2081262;28;20053;-69
2023/11/09 04:54:20;;;;;;;1.20;0.60;;;11.70;99.90;;;;;;2080978;28;20067;-69
2023/11/09 04:55:31;;;;;;;0.50;0.50;;;11.70;99.90;;;;;;2081801;28;20033;-69
2023/11/09 04:56:42;;;;;;;2.05;0.50;;;11.70;99.90;;;;;;2081636;28;20032;-69
2023/11/09 04:59:04;;;;;;;0.60;0.60;;;11.70;99.90;;;;;;2080685;28;20037;-69
2023/11/09 05:07:08;;;;;;;4.72;0.70;;;11.60;99.90;;;;;;2081913;28;20029;-74
2023/11/09 05:08:10;;;;;;;0.75;0.40;;;11.60;99.90;;;;;;2081071;28;20033;-73
2023/11/09 05:09:11;;;;;;;0.98;0.70;;;11.70;99.90;;;;;;2081619;28;20055;-75
2023/11/09 05:10:11;;;;;;;1.10;0.73;;;11.70;99.90;;;;;;2080847;28;20022;-73
2023/11/09 05:11:14;;;;;;;1.75;0.60;;;11.70;99.90;;;;;;2080700;28;20697;-74
2023/11/09 05:12:14;;;;;;;1.05;0.73;;;11.70;99.90;;;;;;2082045;28;20025;-75
2023/11/09 05:13:15;;;;;;;1.58;0.70;;;11.70;99.90;;;;;;2081901;28;20064;-74
2023/11/09 05:14:16;;;;;;;4.95;0.98;;;11.70;99.90;;;;;;2082515;28;20036;-74
2023/11/09 05:15:17;;;;;;;2.05;0.50;;;11.70;99.90;;;;;;2080626;28;20030;-74
2023/11/09 05:16:18;;;;;;;8.57;1.50;;;11.70;99.90;;;;;;2081949;28;20041;-74
2023/11/09 05:17:19;;;;;;;1.52;0.40;;;11.70;99.90;;;;;;2080358;28;20478;-75
2023/11/09 05:18:20;;;;;;;1.33;0.57;;;11.70;99.90;;;;;;2081141;28;20036;-74
2023/11/09 05:19:21;;;;;;;0.70;0.60;;;11.70;99.90;;;;;;2081710;28;20144;-74
2023/11/09 05:20:22;;;;;;;0.70;0.70;;;11.70;99.90;;;;;;2081644;28;20033;-74
2023/11/09 05:21:23;;;;;;;1.00;0.73;;;11.70;99.90;;;;;;2075653;28;20173;-74
2023/11/09 05:22:23;;;;;;;1.15;0.65;;;11.80;99.90;;;;;;2072916;28;20199;-74
2023/11/09 05:23:25;;;;;;;2.17;0.68;;;11.80;99.90;;;;;;2081744;28;20044;-74
2023/11/09 05:24:26;;;;;;;0.85;0.73;;;11.70;99.90;;;;;;2082519;28;20561;-75
2023/11/09 05:25:27;;;;;;;1.58;0.65;;;11.80;99.90;;;;;;2082457;28;20029;-74
2023/11/09 05:26:32;;;;;;;1.75;0.80;;;11.80;99.90;;;;;;2083594;28;20032;-74
2023/11/09 05:27:32;;;;;;;0.85;0.85;;;11.80;99.90;;;;;;2081369;28;20088;-74
2023/11/09 05:28:34;;;;;;;0.63;0.63;;;11.80;99.90;;;;;;2080353;28;20030;-75